Time;durP1;ratioP1;P1;durP2;ratioP2;P2;SDS_P1;SDS_P2;PMS_P1;PMS_P2;Temp;Humidity;BMP_temperature;BMP_pressure;BME280_temperature;BME280_humidity;BME280_pressure;Samples;Min_cycle;Max_cycle;Signal;HPM_P1;HPM_P2
2021/08/03 00:00:48;;;;;;;1.00;0.30;;;13.80;99.90;;;;;;5062078;28;20398;-81
2021/08/03 00:03:15;;;;;;;1.83;0.30;;;13.80;99.90;;;;;;5087782;28;20035;-81
2021/08/03 00:05:48;;;;;;;2.70;0.40;;;13.80;99.90;;;;;;5055080;28;20042;-81
2021/08/03 00:08:32;;;;;;;1.67;0.35;;;13.70;99.90;;;;;;5087077;28;20043;-82
2021/08/03 00:11:03;;;;;;;1.77;0.30;;;13.70;99.90;;;;;;5106650;27;20051;-81
2021/08/03 00:13:31;;;;;;;2.40;0.40;;;13.60;99.90;;;;;;5088738;28;20032;-81
2021/08/03 00:16:01;;;;;;;2.78;0.40;;;13.60;99.90;;;;;;5105849;28;20383;-81
2021/08/03 00:18:31;;;;;;;2.45;0.40;;;13.60;99.90;;;;;;5087677;28;20038;-81
2021/08/03 00:20:58;;;;;;;1.30;0.30;;;13.60;99.90;;;;;;5086958;28;20040;-81
2021/08/03 00:23:25;;;;;;;1.27;0.38;;;13.50;99.90;;;;;;5070848;28;20048;-81
2021/08/03 00:25:53;;;;;;;1.40;0.30;;;13.60;99.90;;;;;;5088109;28;20039;-81
2021/08/03 00:28:20;;;;;;;2.03;0.30;;;13.60;99.90;;;;;;5053636;28;20054;-81
2021/08/03 00:30:48;;;;;;;1.50;0.40;;;13.50;99.90;;;;;;5105456;28;20032;-81
2021/08/03 00:33:15;;;;;;;2.50;0.38;;;13.50;99.90;;;;;;5071390;28;20039;-81
2021/08/03 00:35:42;;;;;;;2.25;0.40;;;13.50;99.90;;;;;;5069398;28;20406;-81
2021/08/03 00:38:10;;;;;;;1.08;0.40;;;13.50;99.90;;;;;;5070098;28;20043;-81
2021/08/03 00:40:51;;;;;;;2.30;0.40;;;13.50;99.90;;;;;;5085958;28;20407;-81
2021/08/03 00:43:19;;;;;;;0.95;0.30;;;13.50;99.90;;;;;;5070248;28;20032;-81
2021/08/03 00:45:45;;;;;;;2.03;0.40;;;13.50;99.90;;;;;;5069713;28;20031;-81
2021/08/03 00:48:12;;;;;;;4.90;0.57;;;13.50;99.90;;;;;;5087420;28;20043;-81
2021/08/03 00:50:39;;;;;;;0.98;0.30;;;13.50;99.90;;;;;;5104272;28;20031;-76
2021/08/03 00:53:07;;;;;;;2.13;0.40;;;13.60;99.90;;;;;;5068972;28;20048;-76
2021/08/03 00:55:36;;;;;;;1.67;0.40;;;13.60;99.90;;;;;;5049383;28;20044;-76
2021/08/03 00:58:03;;;;;;;0.63;0.30;;;13.60;99.90;;;;;;5066786;28;20036;-76
2021/08/03 01:00:30;;;;;;;2.55;0.40;;;13.60;99.90;;;;;;5065926;28;20044;-76
2021/08/03 01:02:58;;;;;;;0.90;0.30;;;13.60;99.90;;;;;;5050622;28;20044;-76
2021/08/03 01:05:34;;;;;;;0.65;0.30;;;13.60;99.90;;;;;;5082841;28;20051;-76
2021/08/03 01:08:23;;;;;;;1.92;0.50;;;13.60;99.90;;;;;;5066675;28;20040;-76
2021/08/03 01:11:03;;;;;;;1.48;0.73;;;13.60;99.90;;;;;;5064007;28;20051;-76
2021/08/03 01:14:04;;;;;;;0.95;0.30;;;13.60;99.90;;;;;;5050255;28;20051;-76
2021/08/03 01:16:40;;;;;;;1.83;0.40;;;13.60;99.90;;;;;;5064206;28;20047;-76
2021/08/03 01:19:35;;;;;;;3.58;0.30;;;13.60;99.90;;;;;;5086585;28;20040;-76
2021/08/03 01:22:42;;;;;;;1.50;0.30;;;13.60;99.90;;;;;;5065389;28;20043;-76
2021/08/03 01:25:33;;;;;;;3.40;0.38;;;13.60;99.90;;;;;;5065340;28;20044;-76
2021/08/03 01:28:11;;;;;;;3.78;0.30;;;13.60;99.90;;;;;;5052560;28;20591;-76
2021/08/03 01:30:43;;;;;;;5.32;0.57;;;13.60;99.90;;;;;;5082251;28;20047;-76
2021/08/03 01:33:11;;;;;;;1.20;0.23;;;13.60;99.90;;;;;;5083360;28;20387;-76
2021/08/03 01:35:42;;;;;;;1.33;0.30;;;13.60;99.90;;;;;;5049211;28;20324;-76
2021/08/03 01:38:13;;;;;;;1.08;0.30;;;13.60;99.90;;;;;;5083071;28;20043;-76
2021/08/03 01:40:45;;;;;;;1.50;0.60;;;13.50;99.90;;;;;;5065195;28;20478;-76
2021/08/03 01:43:13;;;;;;;1.38;0.43;;;13.60;99.90;;;;;;5068027;28;20048;-76
2021/08/03 01:45:41;;;;;;;2.70;0.30;;;13.60;99.90;;;;;;5067203;28;20052;-76
2021/08/03 01:48:10;;;;;;;1.92;0.30;;;13.50;99.90;;;;;;5068412;28;20048;-76
2021/08/03 01:50:39;;;;;;;1.95;0.40;;;13.50;99.90;;;;;;5033303;28;20047;-76
2021/08/03 01:53:10;;;;;;;1.77;0.45;;;13.50;99.90;;;;;;5068501;28;20044;-77
2021/08/03 01:55:39;;;;;;;2.45;0.73;;;13.50;99.90;;;;;;5067599;28;20513;-76
2021/08/03 01:58:15;;;;;;;3.40;0.32;;;13.50;99.90;;;;;;5069687;28;20518;-76
2021/08/03 02:00:57;;;;;;;1.08;0.30;;;13.40;99.90;;;;;;5087535;28;20541;-76
2021/08/03 02:03:27;;;;;;;2.40;0.50;;;13.40;99.90;;;;;;5053693;28;20419;-76
2021/08/03 02:06:09;;;;;;;1.20;0.20;;;13.40;99.90;;;;;;5068646;28;20550;-76
2021/08/03 02:08:36;;;;;;;1.83;0.30;;;13.40;99.90;;;;;;5043620;28;20051;-76
2021/08/03 02:11:09;;;;;;;1.55;0.32;;;13.40;99.90;;;;;;5034366;28;20645;-75
2021/08/03 02:13:37;;;;;;;2.22;0.30;;;13.30;99.90;;;;;;5036994;28;20052;-75
2021/08/03 02:16:09;;;;;;;1.63;0.30;;;13.30;99.90;;;;;;5063816;28;20044;-75
2021/08/03 02:18:37;;;;;;;0.90;0.30;;;13.30;99.90;;;;;;5081439;28;20047;-75
2021/08/03 02:21:07;;;;;;;1.77;0.30;;;13.30;99.90;;;;;;5048102;28;20032;-75
2021/08/03 02:23:34;;;;;;;1.02;0.30;;;13.20;99.90;;;;;;5048820;28;20451;-75
2021/08/03 02:26:06;;;;;;;2.03;0.40;;;13.20;99.90;;;;;;5065422;28;20036;-75
2021/08/03 02:28:35;;;;;;;0.93;0.30;;;13.10;99.90;;;;;;5065644;28;20044;-75
2021/08/03 02:31:11;;;;;;;1.17;0.40;;;13.20;99.90;;;;;;5082682;28;20040;-75
2021/08/03 02:33:49;;;;;;;1.63;0.40;;;13.20;99.90;;;;;;5051595;28;20051;-75
2021/08/03 02:36:20;;;;;;;2.05;0.40;;;13.20;99.90;;;;;;5067766;28;20036;-75
2021/08/03 02:38:59;;;;;;;1.35;0.40;;;13.20;99.90;;;;;;5053098;28;20083;-75
2021/08/03 02:41:30;;;;;;;2.55;0.70;;;13.20;99.90;;;;;;5084976;28;20028;-76
2021/08/03 02:43:58;;;;;;;1.20;0.45;;;13.20;99.90;;;;;;5052686;28;20059;-75
2021/08/03 02:46:28;;;;;;;3.70;0.50;;;13.20;99.90;;;;;;5068151;28;20048;-75
2021/08/03 02:49:15;;;;;;;2.72;0.50;;;13.10;99.90;;;;;;5087132;28;20455;-75
2021/08/03 02:51:42;;;;;;;2.83;0.45;;;13.10;99.90;;;;;;5082456;28;20039;-75
2021/08/03 02:54:23;;;;;;;2.03;0.45;;;13.10;99.90;;;;;;5068128;28;20449;-75
2021/08/03 02:56:53;;;;;;;3.03;0.45;;;13.10;99.90;;;;;;5083964;28;20087;-75
2021/08/03 02:59:22;;;;;;;1.25;0.40;;;13.00;99.90;;;;;;5052322;28;20403;-75
2021/08/03 03:01:50;;;;;;;1.58;0.50;;;13.00;99.90;;;;;;5085971;28;20043;-75
2021/08/03 03:04:25;;;;;;;1.10;0.30;;;13.00;99.90;;;;;;5065752;28;20459;-75
2021/08/03 03:07:04;;;;;;;2.55;0.40;;;13.00;99.90;;;;;;5084843;28;20028;-75
2021/08/03 03:09:36;;;;;;;2.38;0.40;;;13.00;99.90;;;;;;5068076;28;20086;-75
2021/08/03 03:12:05;;;;;;;0.82;0.40;;;13.00;99.90;;;;;;5070012;28;20036;-75
2021/08/03 03:14:35;;;;;;;1.50;0.38;;;13.00;99.90;;;;;;5084754;28;20036;-75
2021/08/03 03:17:03;;;;;;;1.98;0.50;;;13.00;99.90;;;;;;5085113;28;20028;-75
2021/08/03 03:19:35;;;;;;;1.40;0.30;;;13.00;99.90;;;;;;5067858;28;20044;-75
2021/08/03 03:22:06;;;;;;;1.40;0.30;;;13.00;99.90;;;;;;5051839;28;20525;-75
2021/08/03 03:24:36;;;;;;;1.65;0.50;;;13.00;99.90;;;;;;5067545;28;20510;-76
2021/08/03 03:27:04;;;;;;;2.30;0.38;;;13.00;99.90;;;;;;5068065;28;20047;-76
2021/08/03 03:29:34;;;;;;;3.38;0.40;;;13.00;99.90;;;;;;5051100;28;20055;-75
2021/08/03 03:32:02;;;;;;;2.15;0.30;;;13.00;99.90;;;;;;5050778;28;20052;-75
2021/08/03 03:34:31;;;;;;;1.90;0.30;;;13.00;99.90;;;;;;5064776;28;20514;-80
2021/08/03 03:37:00;;;;;;;2.22;0.30;;;13.00;99.90;;;;;;5067776;28;20035;-80
2021/08/03 03:39:28;;;;;;;1.50;0.30;;;13.00;99.90;;;;;;5067981;28;20036;-80
2021/08/03 03:42:01;;;;;;;1.77;0.70;;;12.90;99.90;;;;;;5083667;28;20047;-80
2021/08/03 03:44:29;;;;;;;1.65;0.50;;;12.90;99.90;;;;;;5084755;28;20461;-80
2021/08/03 03:47:01;;;;;;;2.25;0.40;;;13.00;99.90;;;;;;5084797;28;20126;-80
2021/08/03 03:49:41;;;;;;;3.17;0.35;;;13.00;99.90;;;;;;5084568;28;20051;-80
2021/08/03 03:52:09;;;;;;;2.60;0.40;;;13.00;99.90;;;;;;5065646;28;20036;-80
2021/08/03 03:54:44;;;;;;;1.67;0.38;;;12.90;99.90;;;;;;5104339;28;20039;-80
2021/08/03 03:57:16;;;;;;;1.67;0.73;;;12.90;99.90;;;;;;5086921;28;20126;-82
2021/08/03 03:59:46;;;;;;;1.90;0.40;;;12.90;99.90;;;;;;5074888;28;20054;-80
2021/08/03 04:02:15;;;;;;;1.58;0.40;;;13.00;99.90;;;;;;5069408;28;20582;-79
2021/08/03 04:04:43;;;;;;;1.00;0.40;;;12.90;99.90;;;;;;5070084;28;20027;-79
2021/08/03 04:07:10;;;;;;;2.25;0.50;;;12.90;99.90;;;;;;5106099;28;20026;-80
2021/08/03 04:09:38;;;;;;;4.75;2.65;;;12.90;99.90;;;;;;5070468;28;20034;-80
2021/08/03 04:12:12;;;;;;;10.32;6.53;;;12.90;99.90;;;;;;5071421;28;20047;-80
2021/08/03 04:14:43;;;;;;;8.25;6.07;;;12.90;99.90;;;;;;5070047;28;20028;-80
2021/08/03 04:17:11;;;;;;;5.18;3.25;;;12.90;99.90;;;;;;5055067;28;20036;-80
2021/08/03 04:19:41;;;;;;;4.45;1.98;;;12.90;99.90;;;;;;5070077;28;20042;-80
2021/08/03 04:22:08;;;;;;;4.13;2.08;;;12.90;99.90;;;;;;5088154;28;20027;-80
2021/08/03 04:24:34;;;;;;;5.22;2.78;;;13.00;99.90;;;;;;5105271;28;20368;-79
2021/08/03 04:27:01;;;;;;;7.05;3.20;;;13.00;99.90;;;;;;5086664;28;20028;-80
2021/08/03 04:29:28;;;;;;;4.20;1.60;;;13.00;99.90;;;;;;5087800;28;20042;-77
2021/08/03 04:31:54;;;;;;;2.03;0.98;;;12.90;99.90;;;;;;5052889;28;20636;-74
2021/08/03 04:34:20;;;;;;;2.70;1.02;;;12.90;99.90;;;;;;5086955;28;20399;-75
2021/08/03 04:36:47;;;;;;;1.52;0.75;;;12.80;99.90;;;;;;5087073;28;20035;-74
2021/08/03 04:39:13;;;;;;;2.25;0.75;;;12.70;99.90;;;;;;5087337;28;20027;-74
2021/08/03 04:41:40;;;;;;;4.18;1.00;;;12.70;99.90;;;;;;5086556;28;20482;-74
2021/08/03 04:44:07;;;;;;;3.05;1.00;;;12.70;99.90;;;;;;5070576;28;20040;-75
2021/08/03 04:46:34;;;;;;;2.80;0.80;;;12.70;99.90;;;;;;5104544;28;20043;-75
2021/08/03 04:49:01;;;;;;;2.70;0.80;;;12.70;99.90;;;;;;5086337;28;20456;-74
2021/08/03 04:51:28;;;;;;;3.28;0.98;;;12.70;99.90;;;;;;5052653;28;20074;-74
2021/08/03 04:53:54;;;;;;;2.75;0.90;;;12.70;99.90;;;;;;5063688;28;20471;-75
2021/08/03 04:56:21;;;;;;;2.80;0.73;;;12.70;99.90;;;;;;5083542;28;20043;-75
2021/08/03 04:58:47;;;;;;;2.72;0.93;;;12.70;99.90;;;;;;5066102;28;20039;-75
2021/08/03 05:01:13;;;;;;;2.15;0.75;;;12.70;99.90;;;;;;5082223;28;20392;-79
2021/08/03 05:03:40;;;;;;;2.63;0.93;;;12.80;99.90;;;;;;5061283;28;20029;-82
2021/08/03 05:06:07;;;;;;;1.92;0.65;;;12.90;99.90;;;;;;5082560;28;20040;-81
2021/08/03 05:08:34;;;;;;;3.95;0.85;;;12.90;99.90;;;;;;5084537;28;20055;-80
2021/08/03 05:11:00;;;;;;;3.97;1.10;;;13.00;99.90;;;;;;5083558;28;20046;-79
2021/08/03 05:13:26;;;;;;;2.30;0.80;;;13.20;99.90;;;;;;5086267;28;20031;-77
2021/08/03 05:15:53;;;;;;;5.47;3.05;;;13.30;99.90;;;;;;5065152;28;20043;-76
2021/08/03 05:18:19;;;;;;;6.43;5.03;;;13.50;99.90;;;;;;5065378;28;20078;-76
2021/08/03 05:20:46;;;;;;;9.07;5.63;;;13.60;99.90;;;;;;5063525;28;20040;-78
2021/08/03 05:23:12;;;;;;;5.45;2.88;;;13.70;99.90;;;;;;5049086;28;20036;-77
2021/08/03 05:25:39;;;;;;;4.63;1.98;;;13.90;99.90;;;;;;5031265;28;20043;-76
2021/08/03 05:28:05;;;;;;;6.25;1.48;;;14.00;99.90;;;;;;5081541;28;20054;-76
2021/08/03 05:30:31;;;;;;;5.47;2.28;;;14.20;99.90;;;;;;5064362;28;20032;-76
2021/08/03 05:32:58;;;;;;;7.20;5.10;;;14.30;99.90;;;;;;5049433;28;20050;-76
2021/08/03 05:35:26;;;;;;;6.47;4.90;;;14.40;99.90;;;;;;5084642;28;20039;-77
2021/08/03 05:37:53;;;;;;;4.72;2.05;;;14.50;99.90;;;;;;5067728;28;20035;-76
2021/08/03 05:40:20;;;;;;;2.38;1.52;;;14.70;99.90;;;;;;5088358;28;20036;-78
2021/08/03 05:42:47;;;;;;;2.85;1.20;;;14.80;99.90;;;;;;5051754;28;20514;-75
2021/08/03 05:45:13;;;;;;;3.63;1.08;;;15.00;99.90;;;;;;5085205;28;20349;-76
2021/08/03 05:47:41;;;;;;;2.88;1.55;;;15.10;99.90;;;;;;5083458;28;20506;-75
2021/08/03 05:50:08;;;;;;;3.90;1.52;;;15.30;99.90;;;;;;5069184;28;20040;-75
2021/08/03 05:52:35;;;;;;;5.05;1.50;;;15.30;99.90;;;;;;5083200;28;20036;-76
2021/08/03 05:55:02;;;;;;;4.45;1.45;;;15.40;99.90;;;;;;5080883;28;20047;-76
2021/08/03 05:57:30;;;;;;;5.47;1.40;;;15.40;99.90;;;;;;5081908;28;20410;-75
2021/08/03 05:59:57;;;;;;;2.00;0.98;;;15.50;99.90;;;;;;5084471;28;20031;-75
2021/08/03 06:02:23;;;;;;;3.30;0.93;;;15.50;99.90;;;;;;5045907;28;20051;-76
2021/08/03 06:04:50;;;;;;;1.80;1.00;;;15.50;99.90;;;;;;5048910;28;20495;-75
2021/08/03 06:07:17;;;;;;;2.38;1.00;;;15.50;99.90;;;;;;5085313;28;20032;-75
2021/08/03 06:09:44;;;;;;;3.35;1.13;;;15.50;99.90;;;;;;5069527;28;20597;-76
2021/08/03 06:12:11;;;;;;;3.05;1.65;;;15.50;99.90;;;;;;5085915;28;20628;-75
2021/08/03 06:14:41;;;;;;;3.25;1.20;;;15.40;99.90;;;;;;5085990;28;20043;-75
2021/08/03 06:17:12;;;;;;;4.05;1.10;;;15.40;99.90;;;;;;5085936;28;20035;-75
2021/08/03 06:19:49;;;;;;;4.93;0.90;;;15.40;99.90;;;;;;5087055;28;20032;-76
2021/08/03 06:22:18;;;;;;;3.17;1.40;;;15.40;99.90;;;;;;5050089;28;20033;-75
2021/08/03 06:24:49;;;;;;;3.85;0.77;;;15.40;99.90;;;;;;5066808;28;20369;-77
2021/08/03 06:27:19;;;;;;;1.95;0.95;;;15.40;99.90;;;;;;5066664;28;20040;-76
2021/08/03 06:29:46;;;;;;;4.53;1.10;;;15.40;99.90;;;;;;5084924;28;20038;-75
2021/08/03 06:32:14;;;;;;;2.15;0.80;;;15.40;99.90;;;;;;5067853;28;20403;-76
2021/08/03 06:34:45;;;;;;;3.10;1.10;;;15.40;99.90;;;;;;5067929;28;20039;-77
2021/08/03 06:37:13;;;;;;;2.47;1.20;;;15.40;99.90;;;;;;5037170;28;20082;-76
2021/08/03 06:39:40;;;;;;;2.25;0.85;;;15.50;99.90;;;;;;5084107;28;20048;-76
2021/08/03 06:42:16;;;;;;;3.20;0.90;;;15.50;99.90;;;;;;5055979;28;20047;-76
2021/08/03 06:45:16;;;;;;;2.38;0.90;;;15.50;99.90;;;;;;5086451;28;20040;-75
2021/08/03 06:47:54;;;;;;;1.45;0.80;;;15.60;99.90;;;;;;5087580;28;20044;-77
2021/08/03 06:50:25;;;;;;;2.78;1.00;;;15.70;99.90;;;;;;5086332;28;20046;-78
2021/08/03 06:52:52;;;;;;;3.47;0.87;;;15.80;99.90;;;;;;5056265;28;20051;-77
2021/08/03 06:55:27;;;;;;;3.05;1.20;;;15.80;99.90;;;;;;5072384;28;20588;-75
2021/08/03 06:57:57;;;;;;;2.90;1.10;;;15.90;99.90;;;;;;5088133;28;20035;-75
2021/08/03 07:00:28;;;;;;;3.97;1.35;;;15.90;99.90;;;;;;5088026;28;20047;-76
2021/08/03 07:02:57;;;;;;;3.53;1.08;;;15.90;99.90;;;;;;5088499;28;20043;-76
2021/08/03 07:05:27;;;;;;;2.70;1.20;;;16.00;99.90;;;;;;5105353;28;20307;-75
2021/08/03 07:07:57;;;;;;;3.55;1.50;;;16.00;99.90;;;;;;5054865;28;20065;-77
2021/08/03 07:10:24;;;;;;;2.60;1.45;;;16.10;99.90;;;;;;5089387;28;20028;-77
2021/08/03 07:12:55;;;;;;;3.55;1.42;;;16.10;99.90;;;;;;5073721;28;20027;-76
2021/08/03 07:15:26;;;;;;;5.90;3.78;;;16.10;99.90;;;;;;5072125;28;20030;-77
2021/08/03 07:17:54;;;;;;;4.80;1.90;;;16.10;99.90;;;;;;5071674;27;20031;-77
2021/08/03 07:20:23;;;;;;;6.57;2.70;;;16.20;99.90;;;;;;5056594;27;20035;-77
2021/08/03 07:22:50;;;;;;;3.55;1.40;;;16.30;99.90;;;;;;5089465;28;20031;-76
2021/08/03 07:25:18;;;;;;;3.28;1.80;;;16.30;99.90;;;;;;5055327;28;20035;-77
2021/08/03 07:27:44;;;;;;;3.90;1.38;;;16.30;99.90;;;;;;5102879;28;20036;-76
2021/08/03 07:30:11;;;;;;;5.47;1.45;;;16.40;99.90;;;;;;5088694;28;20023;-77
2021/08/03 07:32:38;;;;;;;4.57;1.85;;;16.40;99.90;;;;;;5072093;28;20491;-76
2021/08/03 07:35:06;;;;;;;5.15;1.70;;;16.30;99.90;;;;;;5087421;28;20036;-76
2021/08/03 07:37:34;;;;;;;3.90;2.30;;;16.30;99.90;;;;;;5106547;28;20039;-76
2021/08/03 07:40:00;;;;;;;5.63;1.92;;;16.30;99.90;;;;;;5086882;28;20035;-77
2021/08/03 07:42:27;;;;;;;3.28;1.70;;;16.30;99.90;;;;;;5086938;28;20386;-77
2021/08/03 07:44:53;;;;;;;2.13;1.10;;;16.40;99.90;;;;;;5069983;28;20573;-77
2021/08/03 07:47:20;;;;;;;3.55;1.55;;;16.40;99.90;;;;;;5070054;28;20047;-77
2021/08/03 07:49:48;;;;;;;3.42;1.40;;;16.50;99.90;;;;;;5037083;28;20043;-76
2021/08/03 07:52:14;;;;;;;3.47;1.60;;;16.60;99.90;;;;;;5069293;28;20052;-76
2021/08/03 07:54:41;;;;;;;4.07;1.80;;;16.70;99.90;;;;;;5053271;28;20391;-75
2021/08/03 07:57:07;;;;;;;2.80;1.08;;;16.70;99.90;;;;;;5061786;28;20047;-76
2021/08/03 07:59:33;;;;;;;3.22;1.30;;;16.80;99.90;;;;;;5053064;28;20043;-75
2021/08/03 08:02:00;;;;;;;4.00;1.58;;;17.00;99.90;;;;;;5085914;28;20031;-75
2021/08/03 08:04:26;;;;;;;4.95;1.92;;;17.30;99.90;;;;;;5084513;28;20031;-75
2021/08/03 08:06:53;;;;;;;3.72;1.92;;;17.40;99.90;;;;;;5071117;28;20032;-75
2021/08/03 08:09:19;;;;;;;6.30;3.15;;;17.50;99.90;;;;;;5087833;28;20036;-75
2021/08/03 08:11:48;;;;;;;5.75;2.72;;;17.60;99.90;;;;;;5070922;28;20035;-76
2021/08/03 08:14:14;;;;;;;5.30;2.55;;;17.70;99.90;;;;;;5052890;28;20050;-76
2021/08/03 08:16:43;;;;;;;3.65;2.30;;;17.70;99.90;;;;;;5087385;28;20510;-75
2021/08/03 08:19:10;;;;;;;3.08;1.80;;;17.80;99.90;;;;;;5070309;28;20699;-75
2021/08/03 08:21:36;;;;;;;4.75;3.28;;;17.90;99.90;;;;;;5073849;28;20040;-74
2021/08/03 08:24:04;;;;;;;7.07;4.38;;;18.00;99.90;;;;;;5088264;28;20042;-75
2021/08/03 08:26:31;;;;;;;9.50;6.35;;;18.10;99.90;;;;;;5087931;28;20055;-76
2021/08/03 08:28:57;;;;;;;7.80;5.35;;;18.10;99.90;;;;;;5087175;28;20040;-74
2021/08/03 08:31:24;;;;;;;10.88;7.93;;;18.00;99.90;;;;;;5086117;28;20040;-74
2021/08/03 08:33:50;;;;;;;6.32;5.50;;;18.00;99.90;;;;;;5036414;28;20463;-74
2021/08/03 08:36:17;;;;;;;8.40;6.45;;;18.00;99.90;;;;;;5034544;28;20052;-75
2021/08/03 08:38:43;;;;;;;10.75;8.00;;;18.10;99.90;;;;;;5104704;28;20039;-75
2021/08/03 08:41:13;;;;;;;6.85;5.88;;;18.20;99.90;;;;;;5088841;28;20038;-74
2021/08/03 08:43:41;;;;;;;6.63;5.20;;;18.30;99.90;;;;;;5104915;28;20493;-74
2021/08/03 08:46:08;;;;;;;5.85;4.20;;;18.40;99.90;;;;;;5104382;28;20047;-75
2021/08/03 08:48:37;;;;;;;5.93;4.82;;;18.50;99.90;;;;;;5085866;28;20534;-75
2021/08/03 08:51:06;;;;;;;6.05;4.47;;;18.70;99.90;;;;;;5103802;28;20904;-75
2021/08/03 08:53:35;;;;;;;10.50;5.97;;;18.80;99.90;;;;;;5070411;28;20051;-75
2021/08/03 08:56:03;;;;;;;11.48;6.13;;;18.80;99.90;;;;;;5069070;28;20043;-75
2021/08/03 08:58:34;;;;;;;7.38;5.13;;;18.80;99.90;;;;;;5085682;28;20059;-75
2021/08/03 09:01:04;;;;;;;7.63;6.30;;;18.90;99.90;;;;;;5085415;28;20758;-75
2021/08/03 09:03:30;;;;;;;7.63;5.60;;;18.90;99.90;;;;;;5104701;28;20027;-74
2021/08/03 09:06:05;;;;;;;8.13;6.57;;;18.90;99.90;;;;;;5068119;28;20042;-75
2021/08/03 09:08:49;;;;;;;9.73;6.30;;;19.00;99.90;;;;;;5084923;28;20076;-74
2021/08/03 09:11:18;;;;;;;9.95;5.80;;;18.90;99.90;;;;;;5067167;27;20047;-74
2021/08/03 09:14:00;;;;;;;9.68;5.95;;;18.80;99.90;;;;;;5086416;28;20047;-75
2021/08/03 09:16:41;;;;;;;9.23;5.50;;;18.70;99.90;;;;;;5085566;28;20036;-75
2021/08/03 09:19:29;;;;;;;8.30;5.82;;;18.70;99.90;;;;;;5084820;28;20854;-75
2021/08/03 09:22:11;;;;;;;10.57;5.80;;;18.70;99.90;;;;;;5102785;28;20035;-75
2021/08/03 09:24:39;;;;;;;9.02;6.03;;;18.70;99.90;;;;;;5103680;28;20035;-75
2021/08/03 09:27:06;;;;;;;6.18;4.45;;;18.70;99.90;;;;;;5057396;28;20054;-75
2021/08/03 09:29:46;;;;;;;9.15;4.90;;;18.80;99.90;;;;;;5086106;28;20027;-75
2021/08/03 09:32:12;;;;;;;8.25;5.55;;;18.90;99.90;;;;;;5082266;28;20043;-75
2021/08/03 09:34:39;;;;;;;7.47;4.93;;;19.00;99.90;;;;;;5103623;28;20043;-75
2021/08/03 09:37:07;;;;;;;7.32;4.63;;;19.10;99.80;;;;;;5067446;28;20048;-75
2021/08/03 09:39:35;;;;;;;9.85;5.85;;;19.30;99.80;;;;;;5068189;28;20047;-75
2021/08/03 09:42:06;;;;;;;14.18;8.50;;;19.50;99.60;;;;;;5103545;28;20386;-75
2021/08/03 09:44:33;;;;;;;12.85;8.57;;;19.70;99.20;;;;;;5083471;28;20059;-76
2021/08/03 09:46:59;;;;;;;11.32;7.70;;;20.00;98.80;;;;;;5051074;28;20044;-74
2021/08/03 09:49:43;;;;;;;8.40;5.43;;;20.20;98.30;;;;;;5104161;28;20054;-75
2021/08/03 09:52:12;;;;;;;8.73;5.35;;;20.60;97.90;;;;;;5084718;28;20038;-75
2021/08/03 09:54:40;;;;;;;10.90;6.70;;;20.80;97.20;;;;;;5103321;28;20055;-76
2021/08/03 09:57:25;;;;;;;8.93;5.15;;;20.90;97.30;;;;;;5085860;28;20040;-76
2021/08/03 09:59:54;;;;;;;9.30;5.18;;;21.00;96.60;;;;;;5083085;28;20050;-75
2021/08/03 10:02:24;;;;;;;6.88;5.00;;;21.20;96.40;;;;;;5102133;28;20490;-75
2021/08/03 10:04:52;;;;;;;11.45;6.32;;;21.30;96.30;;;;;;5084804;28;20030;-75
2021/08/03 10:07:19;;;;;;;10.40;7.25;;;21.40;95.70;;;;;;5103757;28;20050;-75
2021/08/03 10:09:51;;;;;;;12.55;8.00;;;21.40;95.40;;;;;;5085203;28;20402;-74
2021/08/03 10:12:18;;;;;;;11.80;8.48;;;21.50;95.20;;;;;;5069215;28;20040;-75
2021/08/03 10:14:45;;;;;;;9.70;6.95;;;21.60;94.90;;;;;;5084755;28;20379;-74
2021/08/03 10:17:15;;;;;;;14.57;8.77;;;21.80;94.90;;;;;;5103084;28;20023;-76
2021/08/03 10:19:42;;;;;;;11.25;8.52;;;22.10;94.80;;;;;;5102782;28;20271;-76
2021/08/03 10:22:21;;;;;;;10.73;5.95;;;22.30;94.40;;;;;;5083204;28;20044;-76
2021/08/03 10:24:56;;;;;;;10.07;7.43;;;22.40;93.90;;;;;;5067966;28;20038;-75
2021/08/03 10:27:37;;;;;;;23.77;18.20;;;22.40;93.60;;;;;;5082248;28;20522;-76
2021/08/03 10:30:04;;;;;;;16.33;12.63;;;22.40;93.40;;;;;;5083583;28;20047;-75
2021/08/03 10:32:42;;;;;;;10.90;8.75;;;22.40;92.80;;;;;;5067816;28;20039;-75
2021/08/03 10:35:27;;;;;;;13.20;9.63;;;22.40;93.10;;;;;;5084205;28;20047;-75
2021/08/03 10:37:59;;;;;;;11.93;9.75;;;22.60;93.00;;;;;;5085837;28;20047;-75
2021/08/03 10:40:44;;;;;;;13.60;9.88;;;22.80;92.70;;;;;;5083323;28;20032;-75
2021/08/03 10:43:18;;;;;;;14.93;11.82;;;23.00;92.40;;;;;;5103626;28;20024;-75
2021/08/03 10:45:46;;;;;;;15.43;12.30;;;23.10;91.30;;;;;;5067657;28;20044;-75
2021/08/03 10:48:37;;;;;;;15.63;13.38;;;23.10;90.80;;;;;;5084230;28;20031;-75
2021/08/03 10:51:13;;;;;;;15.23;13.20;;;23.20;90.50;;;;;;5068278;28;20043;-78
2021/08/03 10:54:03;;;;;;;15.50;12.88;;;23.30;90.50;;;;;;5071915;28;20071;-75
2021/08/03 10:56:54;;;;;;;12.63;11.18;;;23.30;90.20;;;;;;5071452;28;20054;-75
2021/08/03 10:59:37;;;;;;;13.82;11.98;;;23.50;90.30;;;;;;5106517;28;20043;-75
2021/08/03 11:02:05;;;;;;;9.57;8.57;;;23.50;89.20;;;;;;5092909;28;20027;-75
2021/08/03 11:04:46;;;;;;;13.77;11.90;;;23.70;89.50;;;;;;5070977;28;20040;-75
2021/08/03 11:07:32;;;;;;;15.13;12.90;;;23.80;88.70;;;;;;5107169;28;20382;-75
2021/08/03 11:10:25;;;;;;;12.40;11.20;;;23.90;87.90;;;;;;5088423;28;20043;-75
2021/08/03 11:12:52;;;;;;;12.90;11.20;;;23.70;87.50;;;;;;5089072;28;20034;-75
2021/08/03 11:15:22;;;;;;;13.98;12.48;;;23.60;88.10;;;;;;5071681;28;20036;-75
2021/08/03 11:17:52;;;;;;;14.07;11.52;;;23.50;87.90;;;;;;5105270;28;20062;-75
2021/08/03 11:20:48;;;;;;;16.00;14.20;;;23.30;87.70;;;;;;5070399;28;20048;-75
2021/08/03 11:23:16;;;;;;;16.88;13.63;;;22.90;87.50;;;;;;5043565;28;20042;-75
2021/08/03 11:25:46;;;;;;;14.15;12.38;;;22.60;88.70;;;;;;5086305;28;20031;-75
2021/08/03 11:28:15;;;;;;;15.07;12.90;;;22.40;89.80;;;;;;5106493;28;20039;-75
2021/08/03 11:30:44;;;;;;;16.63;13.77;;;22.30;90.30;;;;;;5071469;28;20047;-76
2021/08/03 11:33:12;;;;;;;15.48;12.85;;;22.10;90.60;;;;;;5070973;28;20051;-75
2021/08/03 11:35:38;;;;;;;16.83;15.10;;;22.00;90.80;;;;;;5106149;28;20039;-75
2021/08/03 11:38:07;;;;;;;14.77;13.23;;;22.00;90.80;;;;;;5071483;28;20039;-75
2021/08/03 11:40:45;;;;;;;14.55;12.32;;;21.90;90.80;;;;;;5070884;28;20035;-75
2021/08/03 11:43:12;;;;;;;15.00;13.40;;;21.80;91.30;;;;;;5106072;28;20031;-75
2021/08/03 11:45:40;;;;;;;17.95;16.25;;;21.80;91.40;;;;;;5105380;27;20372;-75
2021/08/03 11:48:20;;;;;;;17.13;14.57;;;21.80;91.40;;;;;;5087611;28;20035;-75
2021/08/03 11:50:46;;;;;;;14.25;12.82;;;21.60;91.10;;;;;;5083562;28;20043;-75
2021/08/03 11:53:16;;;;;;;14.57;13.00;;;21.50;91.20;;;;;;5070375;28;20051;-75
2021/08/03 11:55:46;;;;;;;17.33;14.32;;;21.40;91.30;;;;;;5086654;28;20028;-75
2021/08/03 11:58:18;;;;;;;17.38;15.00;;;21.20;91.50;;;;;;5066764;28;20499;-75
2021/08/03 12:00:45;;;;;;;16.77;14.02;;;21.10;91.80;;;;;;5105276;28;20513;-75
2021/08/03 12:03:11;;;;;;;16.58;13.85;;;20.90;91.90;;;;;;5052754;28;20040;-75
2021/08/03 12:05:38;;;;;;;16.33;12.77;;;20.80;92.20;;;;;;5104886;28;20036;-75
2021/08/03 12:08:09;;;;;;;16.15;13.20;;;20.70;92.40;;;;;;5086605;28;20058;-75
2021/08/03 12:10:40;;;;;;;15.70;14.05;;;20.60;92.60;;;;;;5104916;28;20040;-75
2021/08/03 12:13:24;;;;;;;14.10;12.52;;;20.60;92.70;;;;;;5053562;28;20871;-75
2021/08/03 12:15:54;;;;;;;14.77;13.02;;;20.50;92.70;;;;;;5102900;27;20039;-75
2021/08/03 12:18:21;;;;;;;16.27;14.45;;;20.40;92.80;;;;;;5078132;28;20054;-75
2021/08/03 12:20:55;;;;;;;14.13;12.30;;;20.40;92.90;;;;;;5088168;28;20866;-75
2021/08/03 12:23:23;;;;;;;16.17;13.98;;;20.30;92.80;;;;;;5087874;28;20386;-75
2021/08/03 12:25:57;;;;;;;16.45;14.30;;;20.30;92.90;;;;;;5088625;28;20043;-75
2021/08/03 12:28:31;;;;;;;14.48;12.77;;;20.20;92.90;;;;;;5085033;28;20039;-75
2021/08/03 12:31:13;;;;;;;16.25;14.55;;;20.20;93.10;;;;;;5068527;27;20036;-75
2021/08/03 12:33:40;;;;;;;17.60;13.30;;;20.20;93.20;;;;;;5069414;28;21721;-75
2021/08/03 12:36:08;;;;;;;14.55;13.00;;;20.10;93.30;;;;;;5086922;28;20036;-75
2021/08/03 12:38:36;;;;;;;19.58;14.65;;;20.10;93.10;;;;;;5104446;28;20035;-75
2021/08/03 12:41:20;;;;;;;15.07;12.43;;;20.10;93.20;;;;;;5068309;28;20047;-75
2021/08/03 12:43:47;;;;;;;14.02;12.38;;;20.10;93.30;;;;;;5103612;28;20684;-75
2021/08/03 12:46:14;;;;;;;15.80;14.02;;;20.10;93.40;;;;;;5087181;28;20031;-75
2021/08/03 12:48:59;;;;;;;14.52;13.02;;;20.10;93.40;;;;;;5086094;28;20394;-75
2021/08/03 12:51:28;;;;;;;14.60;12.43;;;20.00;93.50;;;;;;5083839;28;20495;-75
2021/08/03 12:54:13;;;;;;;12.00;10.73;;;20.00;93.70;;;;;;5104175;28;20040;-75
2021/08/03 12:56:56;;;;;;;14.52;13.00;;;19.90;93.80;;;;;;5104480;28;20577;-75
2021/08/03 12:59:39;;;;;;;11.93;10.60;;;19.90;93.90;;;;;;5084692;28;20040;-75
2021/08/03 13:02:08;;;;;;;13.65;12.10;;;19.90;94.10;;;;;;5067583;28;20042;-75